Time;durP1;ratioP1;P1;durP2;ratioP2;P2;SDS_P1;SDS_P2;PMS_P1;PMS_P2;Temp;Humidity;BMP_temperature;BMP_pressure;BME280_temperature;BME280_humidity;BME280_pressure;Samples;Min_cycle;Max_cycle;Signal;HPM_P1;HPM_P2
2022/04/02 00:01:55;;;;;;;10.58;3.87;;;;;;;-0.84;91.54;97853.35;1713527;84;21528;-43
2022/04/02 00:04:20;;;;;;;8.88;4.50;;;;;;;-0.78;91.28;97855.75;1713543;82;21007;-44
2022/04/02 00:06:47;;;;;;;8.35;4.85;;;;;;;-0.79;90.63;97845.47;1713520;84;20999;-43
2022/04/02 00:09:12;;;;;;;8.28;4.08;;;;;;;-0.84;90.45;97841.73;1713513;82;20971;-43
2022/04/02 00:11:38;;;;;;;9.10;3.92;;;;;;;-0.89;90.71;97850.10;1713551;84;20990;-44
2022/04/02 00:14:04;;;;;;;9.88;3.95;;;;;;;-0.80;91.02;97843.77;1713516;82;20999;-43
2022/04/02 00:16:31;;;;;;;5.28;4.00;;;;;;;-0.85;90.89;97839.23;1713563;82;20971;-44
2022/04/02 00:18:56;;;;;;;5.62;4.08;;;;;;;-0.75;90.29;97837.19;1713529;84;21000;-43
2022/04/02 00:21:22;;;;;;;9.33;4.35;;;;;;;-0.77;90.11;97833.36;1713551;82;21496;-44
2022/04/02 00:23:48;;;;;;;8.38;4.00;;;;;;;-0.82;90.09;97830.95;1713627;82;21031;-44
2022/04/02 00:26:18;;;;;;;5.40;3.70;;;;;;;-0.86;89.96;97830.63;1713772;84;21568;-44
2022/04/02 00:28:45;;;;;;;6.25;3.40;;;;;;;-0.97;89.82;97836.59;1713757;82;20975;-43
2022/04/02 00:31:13;;;;;;;6.22;4.25;;;;;;;-1.03;90.85;97826.48;1713819;84;20996;-43
2022/04/02 00:33:40;;;;;;;7.05;3.75;;;;;;;-0.94;90.69;97826.17;1713691;82;21003;-44
2022/04/02 00:36:06;;;;;;;5.60;3.92;;;;;;;-0.94;90.66;97828.76;1713791;82;20988;-44
2022/04/02 00:38:33;;;;;;;5.03;3.60;;;;;;;-0.98;90.66;97824.59;1713600;82;20991;-43
2022/04/02 00:40:59;;;;;;;8.30;4.15;;;;;;;-0.91;90.31;97819.64;1713668;82;20994;-42
2022/04/02 00:43:28;;;;;;;6.33;4.08;;;;;;;-0.92;90.09;97828.25;1713658;84;20972;-42
2022/04/02 00:45:59;;;;;;;6.58;4.40;;;;;;;-0.99;90.61;97834.51;1713710;84;20988;-43
2022/04/02 00:48:27;;;;;;;8.55;4.03;;;;;;;-0.88;90.34;97822.55;1723350;82;21046;-42
2022/04/02 00:50:56;;;;;;;5.72;4.45;;;;;;;-0.86;89.98;97827.21;1728781;81;21010;-43
2022/04/02 00:53:25;;;;;;;7.22;4.83;;;;;;;-0.86;89.82;97825.47;1728839;83;21030;-42
2022/04/02 00:55:51;;;;;;;8.55;5.22;;;;;;;-0.98;89.69;97825.44;1700082;83;20951;-42
2022/04/02 00:58:18;;;;;;;10.23;4.80;;;;;;;-0.93;89.27;97822.69;1728915;81;21034;-42
2022/04/02 01:00:45;;;;;;;6.30;4.67;;;;;;;-0.92;89.91;97834.71;1728813;83;20978;-42
2022/04/02 01:03:12;;;;;;;7.25;4.25;;;;;;;-0.93;90.01;97830.42;1728949;83;20987;-42
2022/04/02 01:05:39;;;;;;;9.63;4.45;;;;;;;-0.88;89.72;97826.42;1728890;81;21858;-42
2022/04/02 01:08:05;;;;;;;8.33;4.53;;;;;;;-0.90;89.70;97824.34;1700320;83;21023;-41
2022/04/02 01:10:33;;;;;;;6.47;4.20;;;;;;;-0.96;89.94;97824.09;1728797;83;21009;-41
2022/04/02 01:12:59;;;;;;;8.93;5.08;;;;;;;-1.11;90.11;97826.73;1728935;81;20982;-42
2022/04/02 01:15:26;;;;;;;6.93;4.30;;;;;;;-0.91;89.96;97832.54;1729084;81;20979;-42
2022/04/02 01:17:52;;;;;;;7.22;4.97;;;;;;;-1.06;90.12;97829.98;1728903;82;20975;-42
2022/04/02 01:20:19;;;;;;;6.47;4.20;;;;;;;-1.05;90.45;97826.98;1728848;83;21515;-42
2022/04/02 01:22:46;;;;;;;4.60;3.83;;;;;;;-1.11;90.53;97821.56;1729159;82;20983;-42
2022/04/02 01:25:12;;;;;;;;;;;;;;;-1.01;90.60;97828.10;1731279;83;21050;-42
2022/04/02 01:27:38;;;;;;;7.85;4.10;;;;;;;-1.03;90.26;97831.64;1728857;82;20164;-42
2022/04/02 01:30:06;;;;;;;6.87;4.17;;;;;;;-1.00;90.24;97830.23;1728800;83;21483;-43
2022/04/02 01:32:33;;;;;;;5.35;3.42;;;;;;;-1.12;90.53;97829.35;1728846;81;20992;-42
2022/04/02 01:34:59;;;;;;;5.23;3.70;;;;;;;-1.04;90.35;97833.80;1729021;82;21035;-42
2022/04/02 01:37:25;;;;;;;7.90;3.75;;;;;;;-1.05;90.35;97836.00;1728533;83;21083;-42
2022/04/02 01:39:51;;;;;;;4.62;3.52;;;;;;;-1.02;90.28;97827.72;1728842;82;21473;-43
2022/04/02 01:42:24;;;;;;;10.65;3.92;;;;;;;-1.05;89.91;97834.26;1728824;83;21044;-42
2022/04/02 01:44:51;;;;;;;12.82;4.40;;;;;;;-1.11;89.99;97836.18;1728185;83;20959;-43
2022/04/02 01:47:21;;;;;;;5.67;4.00;;;;;;;-1.03;90.26;97832.92;1727646;81;21032;-43
2022/04/02 01:49:48;;;;;;;7.03;4.17;;;;;;;-0.94;89.77;97842.95;1705315;84;20988;-42
2022/04/02 01:52:18;;;;;;;7.33;4.08;;;;;;;-1.04;89.76;97840.25;1705371;83;21498;-42
2022/04/02 01:54:45;;;;;;;5.50;3.98;;;;;;;-1.02;89.73;97838.47;1705297;84;21545;-42
2022/04/02 01:57:10;;;;;;;4.75;3.55;;;;;;;-0.98;89.60;97833.62;1705411;84;21000;-43
2022/04/02 01:59:39;;;;;;;8.03;4.55;;;;;;;-0.95;89.49;97839.96;1705193;83;20987;-43
2022/04/02 02:02:05;;;;;;;6.30;4.10;;;;;;;-0.83;89.03;97842.15;1705241;83;20972;-42
2022/04/02 02:04:33;;;;;;;4.53;3.87;;;;;;;-0.75;88.52;97843.64;1705283;83;20957;-46
2022/04/02 02:07:00;;;;;;;7.12;3.60;;;;;;;-0.79;88.18;97841.61;1705343;83;21048;-43
2022/04/02 02:09:26;;;;;;;9.30;3.97;;;;;;;-0.70;87.92;97849.50;1705530;83;20984;-42
2022/04/02 02:11:51;;;;;;;8.38;3.98;;;;;;;-0.67;88.06;97851.53;1705237;84;20988;-42
2022/04/02 02:14:17;;;;;;;6.67;4.15;;;;;;;-0.92;87.55;97854.06;1705255;83;21602;-42
2022/04/02 02:16:43;;;;;;;9.60;4.25;;;;;;;-0.78;87.77;97858.79;1705381;83;21627;-42
2022/04/02 02:19:10;;;;;;;6.37;3.58;;;;;;;-0.75;88.09;97856.55;1705315;83;21536;-43
2022/04/02 02:21:36;;;;;;;9.13;4.05;;;;;;;-0.69;87.58;97856.33;1705242;83;20997;-43
2022/04/02 02:24:02;;;;;;;8.03;3.62;;;;;;;-0.78;87.60;97856.21;1705221;83;21003;-43
2022/04/02 02:26:28;;;;;;;6.53;3.80;;;;;;;-0.99;87.62;97857.73;1705447;83;20992;-43
2022/04/02 02:28:54;;;;;;;5.72;3.27;;;;;;;-0.82;87.80;97859.34;1705230;84;21477;-43
2022/04/02 02:31:20;;;;;;;5.67;3.30;;;;;;;-0.88;87.82;97856.94;1705361;83;21035;-43
2022/04/02 02:36:30;;;;;;;5.95;3.47;;;;;;;-0.92;87.71;97866.97;1705302;84;21007;-43
2022/04/02 02:38:56;;;;;;;11.00;3.65;;;;;;;-0.81;87.86;97865.34;1705348;84;21027;-43
2022/04/02 02:43:25;;;;;;;6.62;3.37;;;;;;;-1.00;87.95;97860.77;1800451;79;22900;-42
2022/04/02 02:45:51;;;;;;;5.15;3.52;;;;;;;-0.97;87.88;97868.84;1760583;81;21094;-42
2022/04/02 02:48:18;;;;;;;5.65;3.33;;;;;;;-0.99;87.39;97867.59;1760596;80;21553;-41
2022/04/02 02:50:44;;;;;;;4.13;3.43;;;;;;;-1.24;87.66;97868.80;1762021;80;21487;-42
2022/04/02 02:53:10;;;;;;;6.08;3.58;;;;;;;-0.99;87.90;97868.05;1761843;81;21038;-42
2022/04/02 02:55:37;;;;;;;4.37;3.20;;;;;;;-1.14;88.10;97864.67;1762049;80;21026;-42
2022/04/02 02:58:03;;;;;;;6.03;3.62;;;;;;;-1.17;88.05;97866.43;1762064;80;21046;-41
2022/04/02 03:00:28;;;;;;;8.18;3.72;;;;;;;-1.09;88.38;97864.06;1761715;81;20983;-42
2022/04/02 03:02:55;;;;;;;8.35;3.70;;;;;;;-1.05;88.28;97864.39;1761766;80;21144;-42
2022/04/02 03:05:21;;;;;;;5.03;3.67;;;;;;;-1.16;88.01;97866.84;1761780;80;21488;-41
2022/04/02 03:07:49;;;;;;;9.65;3.55;;;;;;;-1.09;88.17;97857.61;1761775;80;20992;-41
2022/04/02 03:10:17;;;;;;;6.00;3.85;;;;;;;-1.15;87.15;97859.94;1761788;81;21034;-41
2022/04/02 03:12:44;;;;;;;7.00;4.28;;;;;;;-1.16;87.82;97859.11;1761748;81;21503;-41
2022/04/02 03:15:11;;;;;;;4.10;3.47;;;;;;;-1.10;88.08;97855.94;1761113;80;21078;-41
2022/04/02 03:17:38;;;;;;;7.12;4.03;;;;;;;-1.12;87.76;97860.31;1761949;81;21059;-41
2022/04/02 03:20:06;;;;;;;6.35;3.72;;;;;;;-1.10;87.74;97860.64;1761977;81;20995;-41
2022/04/02 03:22:39;;;;;;;7.20;4.67;;;;;;;-1.09;87.81;97860.19;1761752;81;20960;-41
2022/04/02 03:25:04;;;;;;;6.55;4.30;;;;;;;-1.15;88.01;97862.52;1761403;81;20951;-41
2022/04/02 03:27:30;;;;;;;5.45;4.05;;;;;;;-1.10;87.66;97857.23;1761848;80;21002;-41
2022/04/02 03:29:55;;;;;;;5.72;3.95;;;;;;;-1.26;88.05;97860.72;1761753;81;21059;-41
2022/04/02 03:32:22;;;;;;;6.00;4.42;;;;;;;-1.08;87.86;97860.15;1761833;81;21548;-41
2022/04/02 03:34:47;;;;;;;5.95;4.67;;;;;;;-1.14;88.14;97860.81;1761813;80;20995;-41
2022/04/02 03:37:13;;;;;;;6.28;4.72;;;;;;;-1.08;87.77;97856.28;1761740;81;21026;-42
2022/04/02 03:39:40;;;;;;;7.17;5.25;;;;;;;-1.06;87.44;97863.52;1761771;80;20968;-41
2022/04/02 03:42:09;;;;;;;7.35;5.40;;;;;;;-1.21;88.26;97860.98;1761805;80;21054;-41
2022/04/02 03:44:35;;;;;;;8.20;5.55;;;;;;;-1.22;88.08;97859.31;1762088;81;21026;-41
2022/04/02 03:47:10;;;;;;;6.93;5.30;;;;;;;-1.28;88.62;97864.63;1762324;81;21460;-41
2022/04/02 03:49:42;;;;;;;8.10;6.67;;;;;;;-1.16;89.11;97869.42;1762095;80;21478;-41
2022/04/02 03:52:09;;;;;;;8.53;6.75;;;;;;;-1.19;88.53;97864.34;1761166;81;20999;-42
2022/04/02 03:54:36;;;;;;;9.40;7.60;;;;;;;-1.23;88.73;97867.09;1761699;81;21034;-41
2022/04/02 03:57:04;;;;;;;7.50;6.80;;;;;;;-1.31;88.91;97862.59;1761762;81;20991;-41
2022/04/02 03:59:30;;;;;;;11.78;7.90;;;;;;;-1.30;89.11;97864.30;1761562;81;21019;-41
2022/04/02 04:01:56;;;;;;;8.40;6.42;;;;;;;-1.31;89.08;97866.03;1761431;81;20971;-42
2022/04/02 04:04:24;;;;;;;8.77;6.93;;;;;;;-1.45;88.80;97869.47;1761674;81;21023;-41
2022/04/02 04:06:50;;;;;;;7.28;6.50;;;;;;;-1.31;88.93;97869.91;1761582;81;20956;-41
2022/04/02 04:09:16;;;;;;;7.43;6.43;;;;;;;-1.40;88.35;97877.47;1761764;80;21488;-41
2022/04/02 04:11:42;;;;;;;7.03;6.25;;;;;;;-1.20;88.36;97878.58;1761522;81;21701;-42
2022/04/02 04:14:08;;;;;;;8.53;7.05;;;;;;;-1.19;87.81;97882.41;1761433;81;20995;-41
2022/04/02 04:16:35;;;;;;;9.03;6.70;;;;;;;-1.46;87.37;97881.95;1760182;81;21651;-41
2022/04/02 04:19:01;;;;;;;7.87;6.55;;;;;;;-1.41;87.72;97886.53;1760305;81;21094;-40
2022/04/02 04:21:27;;;;;;;9.78;6.65;;;;;;;-1.28;87.46;97887.01;1760252;80;21027;-44
2022/04/02 04:23:53;;;;;;;8.53;6.58;;;;;;;-1.30;87.68;97888.80;1760335;81;21070;-41
2022/04/02 04:26:19;;;;;;;8.95;6.60;;;;;;;-1.37;87.69;97889.41;1761421;81;20971;-42
2022/04/02 04:28:45;;;;;;;8.00;6.92;;;;;;;-1.34;87.74;97888.04;1761427;81;20991;-43
2022/04/02 04:31:11;;;;;;;8.15;6.92;;;;;;;-1.35;87.64;97888.91;1761413;81;20990;-43
2022/04/02 04:33:38;;;;;;;9.07;7.27;;;;;;;-1.32;87.60;97888.84;1761682;81;21031;-43
2022/04/02 04:36:04;;;;;;;7.55;6.62;;;;;;;-1.41;87.31;97889.95;1761406;81;21682;-43
2022/04/02 04:38:30;;;;;;;9.57;7.47;;;;;;;-1.36;87.37;97902.72;1761680;81;21461;-43
2022/04/02 04:40:56;;;;;;;8.40;7.50;;;;;;;-1.43;87.37;97896.05;1761434;80;20995;-40
2022/04/02 04:43:22;;;;;;;16.05;8.30;;;;;;;-1.40;87.14;97895.52;1761413;80;21023;-40
2022/04/02 04:45:48;;;;;;;11.80;6.70;;;;;;;-1.48;87.16;97897.91;1761401;81;20963;-40
2022/04/02 04:48:14;;;;;;;9.85;8.15;;;;;;;-1.52;87.58;97898.45;1761425;81;20963;-43
2022/04/02 04:50:40;;;;;;;10.30;8.35;;;;;;;-1.45;87.58;97901.70;1761429;80;21480;-40
2022/04/02 04:53:06;;;;;;;12.80;8.33;;;;;;;-1.49;87.88;97907.39;1761505;80;21472;-41
2022/04/02 04:55:32;;;;;;;12.23;7.65;;;;;;;-1.68;88.00;97907.51;1761472;81;21035;-41
2022/04/02 04:57:57;;;;;;;15.80;8.40;;;;;;;-1.55;88.10;97898.10;1761393;81;21570;-43
2022/04/02 05:00:23;;;;;;;14.30;8.65;;;;;;;-1.65;87.90;97900.98;1761409;81;20963;-43
2022/04/02 05:02:49;;;;;;;14.75;7.60;;;;;;;-1.49;87.87;97898.79;1761571;80;20987;-41
2022/04/02 05:05:15;;;;;;;10.65;8.48;;;;;;;-1.58;87.88;97905.92;1761352;81;21441;-41
2022/04/02 05:07:41;;;;;;;11.83;8.98;;;;;;;-1.66;87.36;97911.72;1761512;81;21580;-41
2022/04/02 05:10:10;;;;;;;9.70;7.90;;;;;;;-1.57;87.36;97906.30;1761387;81;21528;-41
2022/04/02 05:12:38;;;;;;;10.72;7.60;;;;;;;-1.62;87.23;97910.77;1761384;81;21043;-41
2022/04/02 05:15:10;;;;;;;11.57;8.70;;;;;;;-1.67;87.42;97911.75;1761394;81;21460;-41
2022/04/02 05:17:36;;;;;;;9.98;7.95;;;;;;;-1.64;87.85;97913.80;1761377;81;21874;-41
2022/04/02 05:20:04;;;;;;;10.08;9.08;;;;;;;-1.58;87.59;97920.09;1761602;81;21022;-41
2022/04/02 05:22:31;;;;;;;12.18;9.68;;;;;;;-1.46;87.59;97919.34;1761363;81;21022;-43
2022/04/02 05:24:57;;;;;;;10.80;9.30;;;;;;;-1.50;87.51;97913.42;1761677;81;20995;-41
2022/04/02 05:27:24;;;;;;;14.20;10.58;;;;;;;-1.40;87.36;97915.28;1761424;80;20994;-43
2022/04/02 05:29:51;;;;;;;13.80;11.15;;;;;;;-1.26;86.73;97917.02;1761391;80;20991;-42
2022/04/02 05:32:18;;;;;;;15.03;12.23;;;;;;;-1.53;86.44;97924.27;1761617;81;21460;-43
2022/04/02 05:34:43;;;;;;;13.15;10.82;;;;;;;-1.44;86.99;97923.55;1761353;81;21030;-42
2022/04/02 05:37:09;;;;;;;15.98;11.30;;;;;;;-1.37;86.34;97924.22;1761368;81;20995;-43
2022/04/02 05:39:35;;;;;;;13.35;11.35;;;;;;;-1.52;85.82;97931.12;1761432;80;20991;-42
2022/04/02 05:42:01;;;;;;;15.15;10.75;;;;;;;-1.65;86.56;97925.02;1761252;80;20994;-43
2022/04/02 05:44:30;;;;;;;13.32;10.75;;;;;;;-1.61;86.30;97925.78;1761397;81;21042;-42
2022/04/02 05:46:55;;;;;;;18.73;10.43;;;;;;;-1.47;86.05;97932.69;1761194;81;20948;-42
2022/04/02 05:49:21;;;;;;;13.05;10.00;;;;;;;-1.52;85.79;97931.12;1761358;81;21002;-42
2022/04/02 05:51:48;;;;;;;14.83;9.75;;;;;;;-1.40;85.67;97932.91;1761436;81;20995;-43
2022/04/02 05:54:14;;;;;;;11.13;8.00;;;;;;;-1.37;85.36;97944.86;1761606;80;20971;-43
2022/04/02 05:56:41;;;;;;;11.57;8.38;;;;;;;-1.57;84.59;97940.27;1761470;80;20991;-43
2022/04/02 05:59:11;;;;;;;10.53;8.50;;;;;;;-1.44;84.60;97945.92;1761529;81;21535;-43
2022/04/02 06:01:37;;;;;;;8.88;7.65;;;;;;;-1.30;84.59;97948.95;1761289;81;20987;-43
2022/04/02 06:04:03;;;;;;;8.20;7.08;;;;;;;-1.36;84.08;97956.42;1761374;81;20968;-42
2022/04/02 06:06:30;;;;;;;9.10;7.90;;;;;;;-1.33;84.07;97951.61;1761349;81;20991;-41
2022/04/02 06:08:57;;;;;;;9.75;7.22;;;;;;;-1.27;83.71;97956.61;1761505;81;21026;-42
2022/04/02 06:11:24;;;;;;;8.75;6.70;;;;;;;-1.29;83.89;97957.52;1761482;81;21050;-42
2022/04/02 06:13:50;;;;;;;9.13;7.03;;;;;;;-1.27;83.59;97955.31;1761570;81;20995;-43
2022/04/02 06:16:16;;;;;;;7.95;6.08;;;;;;;-1.27;83.59;97955.31;1761296;81;21386;-43
2022/04/02 06:18:43;;;;;;;12.40;7.28;;;;;;;-1.01;83.51;97961.44;1761425;81;21003;-43
2022/04/02 06:21:11;;;;;;;7.67;5.83;;;;;;;-0.93;83.00;97959.45;1761544;81;20995;-43
2022/04/02 06:23:37;;;;;;;7.83;5.50;;;;;;;-0.85;82.71;97964.41;1761390;81;21037;-43
2022/04/02 06:26:04;;;;;;;8.18;6.17;;;;;;;-0.86;82.19;97966.13;1761410;81;21019;-43
2022/04/02 06:28:30;;;;;;;13.53;5.70;;;;;;;-1.01;81.47;97967.44;1761330;81;20998;-43
2022/04/02 06:30:56;;;;;;;8.93;5.92;;;;;;;-1.13;81.48;97968.25;1761311;81;20980;-43
2022/04/02 06:33:22;;;;;;;9.75;6.05;;;;;;;-1.14;81.39;97960.96;1761380;81;21022;-43
2022/04/02 06:35:48;;;;;;;7.03;5.08;;;;;;;-0.97;81.68;97968.19;1761405;81;21613;-43
2022/04/02 06:38:13;;;;;;;11.00;5.80;;;;;;;-1.03;80.99;97961.48;1761378;81;20995;-43
2022/04/02 06:40:39;;;;;;;6.95;5.12;;;;;;;-1.02;81.10;97967.48;1761379;81;20995;-41
2022/04/02 06:43:06;;;;;;;10.88;5.58;;;;;;;-1.08;80.71;97968.51;1755650;81;21023;-42
2022/04/02 06:45:32;;;;;;;8.93;5.90;;;;;;;-0.88;80.71;97967.08;1747932;81;21893;-42
2022/04/02 06:47:57;;;;;;;10.00;5.62;;;;;;;-0.81;80.86;97968.58;1748155;81;20981;-42
2022/04/02 06:50:23;;;;;;;10.80;6.30;;;;;;;-0.84;81.05;97971.24;1748039;81;21000;-41
2022/04/02 06:52:49;;;;;;;8.35;5.67;;;;;;;-0.73;80.79;97965.75;1748060;81;21839;-41
2022/04/02 06:55:16;;;;;;;9.95;5.50;;;;;;;-0.78;80.14;97975.78;1748046;81;20988;-41
2022/04/02 06:57:45;;;;;;;8.80;4.97;;;;;;;-0.59;80.35;97977.33;1747994;81;20999;-42
2022/04/02 07:00:12;;;;;;;7.15;4.87;;;;;;;-0.48;80.05;97978.29;1747967;81;21035;-42
2022/04/02 07:02:39;;;;;;;7.67;4.97;;;;;;;-0.67;79.71;97974.63;1748248;81;21125;-43
2022/04/02 07:05:06;;;;;;;9.25;5.33;;;;;;;-0.63;79.74;97977.04;1748170;82;20996;-43
2022/04/02 07:07:32;;;;;;;14.18;5.33;;;;;;;-0.54;80.01;97981.08;1748180;82;21469;-43
2022/04/02 07:09:58;;;;;;;7.62;5.10;;;;;;;-0.36;79.69;97987.40;1737553;82;20995;-43
2022/04/02 07:12:24;;;;;;;6.97;4.78;;;;;;;-0.41;79.05;97993.98;1747935;82;21520;-44
2022/04/02 07:14:50;;;;;;;7.80;5.33;;;;;;;-0.40;78.84;97992.24;1742315;81;21019;-42
2022/04/02 07:17:16;;;;;;;10.03;5.53;;;;;;;-0.21;78.89;97985.59;1739423;82;21015;-43
2022/04/02 07:19:42;;;;;;;11.40;6.28;;;;;;;-0.63;78.06;97987.83;1739538;82;21000;-42
2022/04/02 07:22:09;;;;;;;13.30;6.53;;;;;;;-0.75;79.06;97985.61;1739537;82;21528;-43
2022/04/02 07:24:40;;;;;;;10.58;7.30;;;;;;;-0.59;79.39;97990.70;1739566;82;21622;-44
2022/04/02 07:27:08;;;;;;;21.50;10.75;;;;;;;-0.75;79.46;97989.48;1738801;81;21710;-43
2022/04/02 07:29:35;;;;;;;15.53;9.75;;;;;;;-0.46;79.38;97987.28;1739275;81;21075;-43
2022/04/02 07:32:01;;;;;;;11.70;5.97;;;;;;;-0.47;78.62;97987.73;1739879;82;21007;-43
2022/04/02 07:34:27;;;;;;;9.23;5.08;;;;;;;-0.29;78.10;97990.61;1739659;82;21488;-42
2022/04/02 07:37:01;;;;;;;8.35;4.70;;;;;;;-0.43;77.56;97993.66;1739753;82;21636;-43
2022/04/02 07:39:32;;;;;;;8.15;4.50;;;;;;;-0.37;77.24;97997.78;1739292;81;20988;-45
2022/04/02 07:42:04;;;;;;;10.40;4.87;;;;;;;-0.42;77.36;97994.91;1739647;81;21494;-42
2022/04/02 07:44:41;;;;;;;7.47;5.33;;;;;;;-0.42;77.62;98000.48;1747488;81;21016;-42
2022/04/02 07:47:13;;;;;;;8.08;5.22;;;;;;;-0.48;77.69;98001.53;1753603;82;20983;-41
2022/04/02 07:49:43;;;;;;;8.78;5.37;;;;;;;-0.41;77.62;98011.23;1753756;80;21003;-42
2022/04/02 07:52:10;;;;;;;9.43;5.35;;;;;;;-0.54;78.02;98001.73;1753722;82;20983;-43
2022/04/02 07:54:41;;;;;;;10.20;6.72;;;;;;;-0.37;78.01;98010.23;1752625;82;21531;-43
2022/04/02 07:57:09;;;;;;;9.85;6.78;;;;;;;-0.36;77.65;98011.07;1753725;81;20968;-43
2022/04/02 07:59:44;;;;;;;9.88;6.20;;;;;;;-0.40;76.98;98016.36;1753766;82;21034;-42
2022/04/02 08:05:00;;;;;;;10.13;5.50;;;;;;;-0.29;76.50;98009.98;1753716;82;20999;-43
2022/04/02 08:07:30;;;;;;;9.30;5.45;;;;;;;-0.42;76.34;98010.39;1753651;82;21539;-43
2022/04/02 08:09:57;;;;;;;7.37;5.85;;;;;;;-0.49;76.61;98010.61;1753739;82;20984;-42
2022/04/02 08:12:24;;;;;;;;;;;;;;;-0.26;76.55;98008.60;1755352;81;21070;-43
2022/04/02 08:14:51;;;;;;;15.68;5.28;;;;;;;0.04;76.53;98012.36;1757919;81;20105;-44
2022/04/02 08:17:20;;;;;;;8.48;5.67;;;;;;;0.20;76.49;98013.56;1766881;80;21460;-43
2022/04/02 08:19:51;;;;;;;11.65;6.35;;;;;;;0.38;76.23;98009.05;1766817;81;20963;-43
2022/04/02 08:22:18;;;;;;;7.55;5.20;;;;;;;0.57;75.80;98015.70;1766882;80;20971;-44
2022/04/02 08:24:44;;;;;;;11.08;6.53;;;;;;;0.60;74.59;98017.78;1765535;81;21134;-43
2022/04/02 08:27:51;;;;;;;10.97;5.97;;;;;;;0.68;74.28;98017.08;1765914;81;21491;-44
2022/04/02 08:30:44;;;;;;;;;;;;;;;0.60;74.04;98018.65;1769376;81;21468;-44
2022/04/02 08:33:59;;;;;;;6.65;4.62;;;;;;;0.49;73.99;98015.14;1766830;80;20113;-46
2022/04/02 08:36:39;;;;;;;10.32;5.75;;;;;;;0.61;73.56;98019.03;1766841;81;20995;-44
2022/04/02 08:39:36;;;;;;;18.37;7.60;;;;;;;0.67;73.67;98024.43;1766747;81;20990;-44
2022/04/02 08:42:41;;;;;;;14.47;7.40;;;;;;;0.46;73.66;98024.30;1766824;80;20986;-44
2022/04/02 08:45:12;;;;;;;10.32;6.12;;;;;;;0.78;74.06;98022.75;1766714;81;21464;-43
2022/04/02 08:48:06;;;;;;;9.38;5.25;;;;;;;0.70;73.87;98018.70;1766802;80;21559;-44
2022/04/02 08:50:36;;;;;;;7.95;5.12;;;;;;;0.75;73.57;98025.84;1766801;80;21028;-44
2022/04/02 08:53:19;;;;;;;10.72;6.40;;;;;;;0.65;72.50;98032.23;1766843;81;21416;-43
2022/04/02 08:55:53;;;;;;;12.80;7.25;;;;;;;0.87;73.34;98040.08;1766690;80;20996;-44
2022/04/02 08:58:27;;;;;;;10.23;5.87;;;;;;;1.02;72.86;98027.05;1761524;81;21503;-43
2022/04/02 09:01:07;;;;;;;12.60;5.92;;;;;;;1.20;72.34;98032.00;1766425;81;21099;-43
2022/04/02 09:03:56;;;;;;;8.45;5.58;;;;;;;0.99;72.29;98024.56;1766647;81;20955;-43
2022/04/02 09:07:01;;;;;;;13.05;5.42;;;;;;;0.85;73.21;98026.81;1765669;81;21452;-44
2022/04/02 09:10:13;;;;;;;8.05;4.87;;;;;;;0.71;73.28;98036.35;1765532;81;21499;-45
2022/04/02 09:13:35;;;;;;;15.53;7.00;;;;;;;0.91;73.62;98042.11;1706031;84;20996;-44
2022/04/02 09:16:06;;;;;;;10.28;6.90;;;;;;;0.95;74.22;98037.23;1705984;84;21814;-45
2022/04/02 09:18:59;;;;;;;13.83;7.50;;;;;;;1.38;74.36;98044.67;1706019;84;20996;-44
2022/04/02 09:21:48;;;;;;;12.78;6.37;;;;;;;1.50;73.66;98046.80;1706070;84;20995;-44
2022/04/02 09:24:41;;;;;;;12.55;6.65;;;;;;;2.00;73.37;98035.78;1705976;84;21003;-43
2022/04/02 09:27:43;;;;;;;10.43;6.42;;;;;;;1.90;72.95;98037.92;1706189;84;20968;-43
2022/04/02 09:30:49;;;;;;;9.70;6.03;;;;;;;2.47;72.41;98053.72;1705966;84;20983;-44
2022/04/02 09:33:49;;;;;;;9.65;5.42;;;;;;;2.59;70.93;98040.70;1706008;83;21047;-44
2022/04/02 09:36:46;;;;;;;9.40;5.28;;;;;;;2.52;69.78;98041.41;1692903;84;20964;-44
2022/04/02 09:39:59;;;;;;;9.48;5.58;;;;;;;2.79;70.15;98041.13;1706070;84;20976;-45
2022/04/02 09:42:36;;;;;;;9.68;5.28;;;;;;;2.52;69.35;98037.51;1705967;84;20971;-45
2022/04/02 09:45:13;;;;;;;12.28;7.67;;;;;;;2.38;69.66;98045.87;1706029;83;20992;-43
2022/04/02 09:48:09;;;;;;;17.15;9.18;;;;;;;2.38;70.08;98049.76;1721622;81;20983;-44
2022/04/02 09:50:35;;;;;;;14.18;7.00;;;;;;;2.71;70.80;98047.96;1766701;80;21041;-42
2022/04/02 09:53:27;;;;;;;13.22;7.03;;;;;;;2.77;70.28;98044.25;1766857;80;20986;-42
2022/04/02 09:56:30;;;;;;;12.70;5.90;;;;;;;2.66;70.29;98051.20;1766662;81;21448;-41
2022/04/02 09:59:12;;;;;;;12.43;5.92;;;;;;;2.78;70.28;98048.52;1766047;81;20978;-42
2022/04/02 10:02:03;;;;;;;10.60;6.03;;;;;;;2.69;69.75;98045.86;1766188;81;21018;-42
2022/04/02 10:04:59;;;;;;;13.00;7.17;;;;;;;2.59;70.63;98049.31;1766605;81;21022;-42
2022/04/02 10:07:42;;;;;;;10.18;6.28;;;;;;;2.54;71.41;98047.83;1766583;80;20951;-45
2022/04/02 10:10:08;;;;;;;10.10;6.42;;;;;;;2.41;71.44;98055.30;1765592;81;20974;-43
2022/04/02 10:12:40;;;;;;;11.90;6.87;;;;;;;2.83;71.55;98051.30;1766564;80;21029;-44
2022/04/02 10:15:06;;;;;;;17.82;7.40;;;;;;;2.91;71.19;98047.09;1766490;81;21436;-42
2022/04/02 10:17:34;;;;;;;14.87;8.08;;;;;;;2.83;71.38;98052.59;1766572;80;20987;-43
2022/04/02 10:20:00;;;;;;;14.65;8.10;;;;;;;3.10;71.08;98046.27;1766486;80;21463;-44
2022/04/02 10:22:39;;;;;;;14.33;6.47;;;;;;;2.70;70.86;98051.45;1766502;80;21012;-46
2022/04/02 10:25:09;;;;;;;11.63;6.83;;;;;;;3.09;70.82;98041.50;1766133;81;20987;-44
2022/04/02 10:27:38;;;;;;;14.58;7.58;;;;;;;3.36;71.22;98048.50;1766720;81;21034;-43
2022/04/02 10:30:13;;;;;;;13.58;8.20;;;;;;;3.25;69.84;98048.98;1765525;81;21484;-44
2022/04/02 10:35:49;;;;;;;13.72;7.08;;;;;;;3.35;68.05;98043.40;1763151;81;21536;-42
2022/04/02 10:38:21;;;;;;;13.35;7.05;;;;;;;3.42;67.44;98043.04;1753593;82;20983;-42
2022/04/02 10:40:52;;;;;;;18.12;7.22;;;;;;;3.44;67.18;98039.91;1752528;82;21011;-44
2022/04/02 10:43:28;;;;;;;20.57;10.10;;;;;;;3.49;67.50;98045.34;1752422;81;21485;-43
2022/04/02 10:45:56;;;;;;;17.77;10.40;;;;;;;3.51;67.93;98045.67;1739537;82;21461;-42
2022/04/02 10:48:33;;;;;;;14.43;8.93;;;;;;;3.45;66.18;98044.64;1739632;82;21020;-43
2022/04/02 10:51:02;;;;;;;11.05;7.85;;;;;;;3.58;66.47;98050.94;1724746;82;21097;-44
2022/04/02 10:53:32;;;;;;;14.93;8.23;;;;;;;3.54;65.23;98047.28;1739505;82;21000;-43
2022/04/02 10:56:01;;;;;;;14.30;8.13;;;;;;;3.50;64.90;98053.54;1737392;81;21008;-43
2022/04/02 10:58:32;;;;;;;14.87;7.33;;;;;;;3.31;64.11;98053.53;1739473;82;21443;-43
2022/04/02 11:01:02;;;;;;;11.70;6.12;;;;;;;3.48;65.00;98051.01;1739186;82;20988;-43
2022/04/02 11:03:40;;;;;;;12.88;7.10;;;;;;;3.33;63.21;98052.56;1739639;82;20980;-44
2022/04/02 11:06:07;;;;;;;;;;;;;;;3.50;64.24;98049.64;1742333;82;21046;-44
2022/04/02 11:08:33;;;;;;;15.23;7.50;;;;;;;3.11;62.34;98046.63;1739841;82;20428;-43
2022/04/02 11:11:19;;;;;;;16.05;8.68;;;;;;;3.37;63.21;98046.77;1739667;82;21441;-43
2022/04/02 11:13:45;;;;;;;15.95;9.40;;;;;;;3.50;63.90;98049.64;1739632;82;21492;-42
2022/04/02 11:16:15;;;;;;;15.20;8.75;;;;;;;3.62;63.34;98049.05;1739587;82;21461;-44
2022/04/02 11:19:53;;;;;;;17.35;10.23;;;;;;;3.75;63.44;98055.38;1739713;82;20984;-43
2022/04/02 11:21:13;;;;;;;11.88;7.85;;;;;;;3.82;62.83;98049.40;1736508;82;20952;-43
2022/04/02 11:23:56;;;;;;;18.67;9.58;;;;;;;3.82;61.16;98048.96;1739784;81;21035;-42
2022/04/02 11:26:27;;;;;;;14.85;8.58;;;;;;;3.89;61.61;98040.86;1739649;82;21019;-43
2022/04/02 11:28:55;;;;;;;32.35;16.50;;;;;;;4.06;61.95;98046.53;1739645;82;21462;-43
2022/04/02 11:31:28;;;;;;;25.43;13.38;;;;;;;4.03;59.79;98043.63;1739678;82;21015;-43
2022/04/02 11:33:54;;;;;;;24.90;12.15;;;;;;;4.27;60.60;98045.95;1739503;82;20988;-43
2022/04/02 11:36:23;;;;;;;21.15;12.10;;;;;;;4.31;60.37;98038.36;1739764;82;21003;-43
2022/04/02 11:39:02;;;;;;;29.82;13.90;;;;;;;4.46;60.86;98039.34;1739697;82;21481;-43
2022/04/02 11:41:36;;;;;;;41.05;19.42;;;;;;;4.46;59.68;98038.05;1739672;82;21032;-43
2022/04/02 11:44:14;;;;;;;25.05;13.58;;;;;;;4.58;59.21;98036.13;1743363;82;20997;-44
2022/04/02 11:47:02;;;;;;;16.93;8.15;;;;;;;4.79;59.05;98037.63;1753881;81;20956;-45
2022/04/02 11:49:39;;;;;;;20.30;11.22;;;;;;;4.82;58.22;98032.75;1753619;82;20998;-44
2022/04/02 11:52:10;;;;;;;56.88;25.05;;;;;;;4.68;56.02;98043.03;1753817;80;20983;-43
2022/04/02 11:54:53;;;;;;;18.70;9.90;;;;;;;4.59;56.36;98033.45;1753723;82;21503;-43
2022/04/02 11:57:19;;;;;;;26.48;12.50;;;;;;;4.80;57.68;98040.64;1752755;82;21478;-43
2022/04/02 11:59:57;;;;;;;19.32;11.05;;;;;;;4.86;56.65;98035.56;1753868;82;20956;-43